sensor_id;sensor_type;location;lat;lon;timestamp;P1;durP1;ratioP1;P2;durP2;ratioP2
59872;SDS011;50750;51.636;4.948;2022-12-10T00:01:27;15.90;;;10.20;;
59872;SDS011;50750;51.636;4.948;2022-12-10T00:03:54;19.90;;;11.20;;
59872;SDS011;50750;51.636;4.948;2022-12-10T00:06:21;18.30;;;10.60;;
59872;SDS011;50750;51.636;4.948;2022-12-10T00:08:50;17.50;;;11.40;;
59872;SDS011;50750;51.636;4.948;2022-12-10T00:11:16;18.80;;;11.30;;
59872;SDS011;50750;51.636;4.948;2022-12-10T00:13:45;17.70;;;11.10;;
59872;SDS011;50750;51.636;4.948;2022-12-10T00:16:13;16.20;;;10.10;;
59872;SDS011;50750;51.636;4.948;2022-12-10T00:18:40;15.90;;;10.40;;
59872;SDS011;50750;51.636;4.948;2022-12-10T00:21:08;17.20;;;11.20;;
59872;SDS011;50750;51.636;4.948;2022-12-10T00:23:36;18.00;;;11.10;;
59872;SDS011;50750;51.636;4.948;2022-12-10T00:28:40;15.80;;;9.10;;
59872;SDS011;50750;51.636;4.948;2022-12-10T00:31:10;16.60;;;10.90;;
59872;SDS011;50750;51.636;4.948;2022-12-10T00:33:39;18.50;;;11.50;;
59872;SDS011;50750;51.636;4.948;2022-12-10T00:36:14;18.80;;;11.20;;
59872;SDS011;50750;51.636;4.948;2022-12-10T00:38:42;19.20;;;10.90;;
59872;SDS011;50750;51.636;4.948;2022-12-10T00:41:09;18.70;;;11.50;;
59872;SDS011;50750;51.636;4.948;2022-12-10T00:43:35;18.60;;;11.40;;
59872;SDS011;50750;51.636;4.948;2022-12-10T00:46:02;21.50;;;11.70;;
59872;SDS011;50750;51.636;4.948;2022-12-10T00:48:29;18.30;;;11.60;;
59872;SDS011;50750;51.636;4.948;2022-12-10T00:50:59;18.90;;;11.30;;
59872;SDS011;50750;51.636;4.948;2022-12-10T00:53:26;19.70;;;11.20;;
59872;SDS011;50750;51.636;4.948;2022-12-10T00:55:54;18.10;;;10.40;;
59872;SDS011;50750;51.636;4.948;2022-12-10T00:58:21;19.40;;;11.60;;
59872;SDS011;50750;51.636;4.948;2022-12-10T01:00:47;17.40;;;10.60;;
59872;SDS011;50750;51.636;4.948;2022-12-10T01:03:14;20.50;;;11.40;;
59872;SDS011;50750;51.636;4.948;2022-12-10T01:05:40;19.20;;;10.50;;
59872;SDS011;50750;51.636;4.948;2022-12-10T01:08:06;18.50;;;10.90;;
59872;SDS011;50750;51.636;4.948;2022-12-10T01:10:32;18.40;;;11.70;;
59872;SDS011;50750;51.636;4.948;2022-12-10T01:12:58;19.30;;;12.10;;
59872;SDS011;50750;51.636;4.948;2022-12-10T01:15:24;21.40;;;12.50;;
59872;SDS011;50750;51.636;4.948;2022-12-10T01:17:50;19.10;;;11.20;;
59872;SDS011;50750;51.636;4.948;2022-12-10T01:20:16;19.20;;;11.40;;
59872;SDS011;50750;51.636;4.948;2022-12-10T01:22:42;19.70;;;11.60;;
59872;SDS011;50750;51.636;4.948;2022-12-10T01:25:08;18.40;;;11.50;;
59872;SDS011;50750;51.636;4.948;2022-12-10T01:27:34;19.30;;;12.00;;
59872;SDS011;50750;51.636;4.948;2022-12-10T01:30:00;19.50;;;11.80;;
59872;SDS011;50750;51.636;4.948;2022-12-10T01:32:26;21.00;;;11.60;;
59872;SDS011;50750;51.636;4.948;2022-12-10T01:34:51;20.80;;;11.20;;
59872;SDS011;50750;51.636;4.948;2022-12-10T01:37:17;19.00;;;11.70;;
59872;SDS011;50750;51.636;4.948;2022-12-10T01:39:43;20.40;;;12.10;;
59872;SDS011;50750;51.636;4.948;2022-12-10T01:42:09;20.00;;;11.70;;
59872;SDS011;50750;51.636;4.948;2022-12-10T01:47:07;18.60;;;11.50;;
59872;SDS011;50750;51.636;4.948;2022-12-10T01:49:35;22.10;;;11.80;;
59872;SDS011;50750;51.636;4.948;2022-12-10T01:52:04;22.10;;;12.20;;
59872;SDS011;50750;51.636;4.948;2022-12-10T01:54:36;22.50;;;12.20;;
59872;SDS011;50750;51.636;4.948;2022-12-10T01:57:06;24.30;;;12.80;;
59872;SDS011;50750;51.636;4.948;2022-12-10T01:59:35;22.40;;;11.80;;
59872;SDS011;50750;51.636;4.948;2022-12-10T02:02:24;18.70;;;11.50;;
59872;SDS011;50750;51.636;4.948;2022-12-10T02:12:44;19.40;;;11.40;;
59872;SDS011;50750;51.636;4.948;2022-12-10T02:15:33;21.70;;;11.70;;
59872;SDS011;50750;51.636;4.948;2022-12-10T02:18:48;19.80;;;11.20;;
59872;SDS011;50750;51.636;4.948;2022-12-10T02:21:02;18.60;;;11.30;;
59872;SDS011;50750;51.636;4.948;2022-12-10T02:23:35;20.00;;;11.20;;
59872;SDS011;50750;51.636;4.948;2022-12-10T02:26:53;18.60;;;11.70;;
59872;SDS011;50750;51.636;4.948;2022-12-10T02:31:44;21.80;;;12.20;;
59872;SDS011;50750;51.636;4.948;2022-12-10T02:34:14;22.90;;;12.80;;
59872;SDS011;50750;51.636;4.948;2022-12-10T02:36:43;22.70;;;12.40;;
59872;SDS011;50750;51.636;4.948;2022-12-10T02:39:12;20.70;;;11.20;;
59872;SDS011;50750;51.636;4.948;2022-12-10T02:41:50;18.60;;;11.00;;
59872;SDS011;50750;51.636;4.948;2022-12-10T02:44:18;21.70;;;11.90;;
59872;SDS011;50750;51.636;4.948;2022-12-10T02:46:47;23.40;;;12.90;;
59872;SDS011;50750;51.636;4.948;2022-12-10T02:49:18;22.20;;;12.30;;
59872;SDS011;50750;51.636;4.948;2022-12-10T02:51:44;22.10;;;12.30;;
59872;SDS011;50750;51.636;4.948;2022-12-10T02:57:02;21.70;;;12.30;;
59872;SDS011;50750;51.636;4.948;2022-12-10T02:59:50;21.60;;;12.10;;
59872;SDS011;50750;51.636;4.948;2022-12-10T03:08:17;19.60;;;11.60;;
59872;SDS011;50750;51.636;4.948;2022-12-10T03:13:15;19.70;;;11.30;;
59872;SDS011;50750;51.636;4.948;2022-12-10T03:15:45;21.80;;;12.00;;
59872;SDS011;50750;51.636;4.948;2022-12-10T03:18:13;24.20;;;13.60;;
59872;SDS011;50750;51.636;4.948;2022-12-10T03:20:43;21.70;;;12.40;;
59872;SDS011;50750;51.636;4.948;2022-12-10T03:23:12;21.00;;;12.70;;
59872;SDS011;50750;51.636;4.948;2022-12-10T03:25:41;21.90;;;12.70;;
59872;SDS011;50750;51.636;4.948;2022-12-10T03:28:08;25.40;;;13.20;;
59872;SDS011;50750;51.636;4.948;2022-12-10T03:30:35;23.90;;;12.40;;
59872;SDS011;50750;51.636;4.948;2022-12-10T03:33:03;22.50;;;12.80;;
59872;SDS011;50750;51.636;4.948;2022-12-10T03:35:29;22.50;;;12.30;;
59872;SDS011;50750;51.636;4.948;2022-12-10T03:37:56;25.70;;;13.80;;
59872;SDS011;50750;51.636;4.948;2022-12-10T03:40:22;24.10;;;12.60;;
59872;SDS011;50750;51.636;4.948;2022-12-10T03:42:50;23.30;;;13.10;;
59872;SDS011;50750;51.636;4.948;2022-12-10T03:45:16;24.90;;;13.80;;
59872;SDS011;50750;51.636;4.948;2022-12-10T03:47:42;26.00;;;13.50;;
59872;SDS011;50750;51.636;4.948;2022-12-10T03:50:09;25.00;;;13.80;;
59872;SDS011;50750;51.636;4.948;2022-12-10T03:52:35;26.00;;;13.70;;
59872;SDS011;50750;51.636;4.948;2022-12-10T03:55:01;26.10;;;14.00;;
59872;SDS011;50750;51.636;4.948;2022-12-10T03:57:28;22.50;;;13.20;;
59872;SDS011;50750;51.636;4.948;2022-12-10T03:59:55;27.00;;;14.10;;
59872;SDS011;50750;51.636;4.948;2022-12-10T04:02:20;24.30;;;13.50;;
59872;SDS011;50750;51.636;4.948;2022-12-10T04:04:46;27.30;;;13.30;;
59872;SDS011;50750;51.636;4.948;2022-12-10T04:07:12;25.00;;;13.50;;
59872;SDS011;50750;51.636;4.948;2022-12-10T04:09:38;26.10;;;14.00;;
59872;SDS011;50750;51.636;4.948;2022-12-10T04:12:04;25.70;;;13.70;;
59872;SDS011;50750;51.636;4.948;2022-12-10T04:14:31;25.30;;;13.30;;
59872;SDS011;50750;51.636;4.948;2022-12-10T04:17:16;25.40;;;12.60;;
59872;SDS011;50750;51.636;4.948;2022-12-10T04:19:42;24.90;;;13.70;;
59872;SDS011;50750;51.636;4.948;2022-12-10T04:22:08;25.00;;;14.50;;
59872;SDS011;50750;51.636;4.948;2022-12-10T04:24:53;26.30;;;14.20;;
59872;SDS011;50750;51.636;4.948;2022-12-10T04:27:38;28.00;;;13.60;;
59872;SDS011;50750;51.636;4.948;2022-12-10T04:30:05;27.20;;;13.70;;
59872;SDS011;50750;51.636;4.948;2022-12-10T04:32:33;24.50;;;13.00;;
59872;SDS011;50750;51.636;4.948;2022-12-10T04:34:59;26.60;;;14.00;;
59872;SDS011;50750;51.636;4.948;2022-12-10T04:37:26;29.50;;;15.20;;
59872;SDS011;50750;51.636;4.948;2022-12-10T04:39:53;25.70;;;13.80;;
59872;SDS011;50750;51.636;4.948;2022-12-10T04:42:19;26.10;;;14.70;;
59872;SDS011;50750;51.636;4.948;2022-12-10T04:44:46;26.10;;;13.50;;
59872;SDS011;50750;51.636;4.948;2022-12-10T04:47:12;28.40;;;14.70;;
59872;SDS011;50750;51.636;4.948;2022-12-10T04:49:38;26.40;;;14.30;;
59872;SDS011;50750;51.636;4.948;2022-12-10T04:52:05;27.30;;;14.40;;
59872;SDS011;50750;51.636;4.948;2022-12-10T04:54:32;28.30;;;13.60;;
59872;SDS011;50750;51.636;4.948;2022-12-10T04:56:58;26.10;;;14.50;;
59872;SDS011;50750;51.636;4.948;2022-12-10T04:59:24;26.40;;;13.60;;
59872;SDS011;50750;51.636;4.948;2022-12-10T05:01:50;26.80;;;14.30;;
59872;SDS011;50750;51.636;4.948;2022-12-10T05:04:17;24.10;;;13.80;;
59872;SDS011;50750;51.636;4.948;2022-12-10T05:06:44;25.40;;;13.80;;
59872;SDS011;50750;51.636;4.948;2022-12-10T05:09:12;27.70;;;14.50;;
59872;SDS011;50750;51.636;4.948;2022-12-10T05:11:39;29.10;;;14.00;;
59872;SDS011;50750;51.636;4.948;2022-12-10T05:14:06;27.70;;;14.80;;
59872;SDS011;50750;51.636;4.948;2022-12-10T05:16:35;28.80;;;14.80;;
59872;SDS011;50750;51.636;4.948;2022-12-10T05:19:01;25.60;;;13.80;;
59872;SDS011;50750;51.636;4.948;2022-12-10T05:21:27;28.80;;;14.10;;
59872;SDS011;50750;51.636;4.948;2022-12-10T05:24:15;25.80;;;14.10;;
59872;SDS011;50750;51.636;4.948;2022-12-10T05:26:43;27.90;;;14.40;;
59872;SDS011;50750;51.636;4.948;2022-12-10T05:29:09;24.50;;;13.40;;
59872;SDS011;50750;51.636;4.948;2022-12-10T05:31:35;27.20;;;13.80;;
59872;SDS011;50750;51.636;4.948;2022-12-10T05:34:01;27.10;;;14.60;;
59872;SDS011;50750;51.636;4.948;2022-12-10T05:36:29;28.80;;;14.50;;
59872;SDS011;50750;51.636;4.948;2022-12-10T05:38:56;26.60;;;14.10;;
59872;SDS011;50750;51.636;4.948;2022-12-10T05:41:24;27.80;;;14.40;;
59872;SDS011;50750;51.636;4.948;2022-12-10T05:43:53;24.00;;;12.60;;
59872;SDS011;50750;51.636;4.948;2022-12-10T05:46:21;25.70;;;13.30;;
59872;SDS011;50750;51.636;4.948;2022-12-10T05:48:50;27.30;;;13.60;;
59872;SDS011;50750;51.636;4.948;2022-12-10T05:51:17;26.50;;;13.50;;
59872;SDS011;50750;51.636;4.948;2022-12-10T05:53:54;27.40;;;14.00;;
59872;SDS011;50750;51.636;4.948;2022-12-10T05:56:22;28.40;;;13.70;;
59872;SDS011;50750;51.636;4.948;2022-12-10T05:58:50;25.80;;;13.30;;
59872;SDS011;50750;51.636;4.948;2022-12-10T06:01:19;26.90;;;14.10;;
59872;SDS011;50750;51.636;4.948;2022-12-10T06:03:47;29.20;;;15.00;;
59872;SDS011;50750;51.636;4.948;2022-12-10T06:06:13;29.90;;;13.90;;
59872;SDS011;50750;51.636;4.948;2022-12-10T06:08:39;28.80;;;14.60;;
59872;SDS011;50750;51.636;4.948;2022-12-10T06:11:07;28.70;;;14.50;;
59872;SDS011;50750;51.636;4.948;2022-12-10T06:13:36;27.80;;;13.20;;
59872;SDS011;50750;51.636;4.948;2022-12-10T06:16:09;28.30;;;13.80;;
59872;SDS011;50750;51.636;4.948;2022-12-10T06:18:37;26.70;;;14.00;;
59872;SDS011;50750;51.636;4.948;2022-12-10T06:21:04;30.70;;;14.20;;
59872;SDS011;50750;51.636;4.948;2022-12-10T06:23:31;26.10;;;13.80;;
59872;SDS011;50750;51.636;4.948;2022-12-10T06:25:57;26.70;;;13.80;;
59872;SDS011;50750;51.636;4.948;2022-12-10T06:28:23;27.40;;;14.10;;
59872;SDS011;50750;51.636;4.948;2022-12-10T06:30:48;29.20;;;14.00;;
59872;SDS011;50750;51.636;4.948;2022-12-10T06:33:14;27.10;;;13.60;;
59872;SDS011;50750;51.636;4.948;2022-12-10T06:35:40;24.40;;;13.20;;
59872;SDS011;50750;51.636;4.948;2022-12-10T06:38:06;26.90;;;13.50;;
59872;SDS011;50750;51.636;4.948;2022-12-10T06:40:32;27.10;;;13.70;;
59872;SDS011;50750;51.636;4.948;2022-12-10T06:42:58;27.00;;;14.00;;
59872;SDS011;50750;51.636;4.948;2022-12-10T06:45:23;26.30;;;14.10;;
59872;SDS011;50750;51.636;4.948;2022-12-10T06:47:49;26.00;;;13.30;;
59872;SDS011;50750;51.636;4.948;2022-12-10T06:50:15;28.20;;;13.60;;
59872;SDS011;50750;51.636;4.948;2022-12-10T06:52:41;29.10;;;15.40;;
59872;SDS011;50750;51.636;4.948;2022-12-10T06:55:07;29.50;;;14.70;;
59872;SDS011;50750;51.636;4.948;2022-12-10T06:57:33;25.20;;;13.70;;
59872;SDS011;50750;51.636;4.948;2022-12-10T06:59:59;28.50;;;15.30;;
59872;SDS011;50750;51.636;4.948;2022-12-10T07:02:25;27.60;;;13.70;;
59872;SDS011;50750;51.636;4.948;2022-12-10T07:04:51;29.60;;;15.50;;
59872;SDS011;50750;51.636;4.948;2022-12-10T07:07:18;29.60;;;15.00;;
59872;SDS011;50750;51.636;4.948;2022-12-10T07:09:44;27.80;;;14.70;;
59872;SDS011;50750;51.636;4.948;2022-12-10T07:12:10;27.60;;;13.90;;
59872;SDS011;50750;51.636;4.948;2022-12-10T07:14:36;28.60;;;14.50;;
59872;SDS011;50750;51.636;4.948;2022-12-10T07:17:02;28.90;;;14.60;;
59872;SDS011;50750;51.636;4.948;2022-12-10T07:19:28;27.70;;;14.40;;
59872;SDS011;50750;51.636;4.948;2022-12-10T07:21:54;27.20;;;13.50;;
59872;SDS011;50750;51.636;4.948;2022-12-10T07:24:19;26.80;;;14.10;;
59872;SDS011;50750;51.636;4.948;2022-12-10T07:26:46;27.60;;;13.30;;
59872;SDS011;50750;51.636;4.948;2022-12-10T07:29:14;24.90;;;13.50;;
59872;SDS011;50750;51.636;4.948;2022-12-10T07:31:45;28.70;;;14.20;;
59872;SDS011;50750;51.636;4.948;2022-12-10T07:34:12;29.10;;;14.20;;
59872;SDS011;50750;51.636;4.948;2022-12-10T07:36:38;26.50;;;13.70;;
59872;SDS011;50750;51.636;4.948;2022-12-10T07:39:07;27.80;;;14.10;;
59872;SDS011;50750;51.636;4.948;2022-12-10T07:41:35;28.70;;;14.50;;
59872;SDS011;50750;51.636;4.948;2022-12-10T07:44:02;28.40;;;14.30;;
59872;SDS011;50750;51.636;4.948;2022-12-10T07:46:30;28.10;;;14.80;;
59872;SDS011;50750;51.636;4.948;2022-12-10T07:48:59;27.50;;;13.90;;
59872;SDS011;50750;51.636;4.948;2022-12-10T07:51:26;27.90;;;13.70;;
59872;SDS011;50750;51.636;4.948;2022-12-10T07:53:52;26.90;;;13.80;;
59872;SDS011;50750;51.636;4.948;2022-12-10T07:56:19;29.00;;;14.50;;
59872;SDS011;50750;51.636;4.948;2022-12-10T07:58:46;24.20;;;12.90;;
59872;SDS011;50750;51.636;4.948;2022-12-10T08:01:13;27.40;;;13.40;;
59872;SDS011;50750;51.636;4.948;2022-12-10T08:03:44;27.60;;;13.30;;
59872;SDS011;50750;51.636;4.948;2022-12-10T08:06:18;25.70;;;13.90;;
59872;SDS011;50750;51.636;4.948;2022-12-10T08:08:46;26.90;;;13.10;;
59872;SDS011;50750;51.636;4.948;2022-12-10T08:11:14;27.30;;;13.90;;
59872;SDS011;50750;51.636;4.948;2022-12-10T08:13:41;24.00;;;12.40;;
59872;SDS011;50750;51.636;4.948;2022-12-10T08:16:17;25.90;;;13.20;;
59872;SDS011;50750;51.636;4.948;2022-12-10T08:18:45;26.40;;;12.90;;
59872;SDS011;50750;51.636;4.948;2022-12-10T08:21:13;25.90;;;13.00;;
59872;SDS011;50750;51.636;4.948;2022-12-10T08:23:41;25.50;;;13.20;;
59872;SDS011;50750;51.636;4.948;2022-12-10T08:26:08;25.90;;;12.70;;
59872;SDS011;50750;51.636;4.948;2022-12-10T08:28:35;26.20;;;13.10;;
59872;SDS011;50750;51.636;4.948;2022-12-10T08:31:02;26.30;;;13.40;;
59872;SDS011;50750;51.636;4.948;2022-12-10T08:33:29;29.90;;;14.10;;
59872;SDS011;50750;51.636;4.948;2022-12-10T08:35:58;24.30;;;12.80;;
59872;SDS011;50750;51.636;4.948;2022-12-10T08:38:25;24.90;;;12.70;;
59872;SDS011;50750;51.636;4.948;2022-12-10T08:40:51;27.20;;;13.60;;
59872;SDS011;50750;51.636;4.948;2022-12-10T08:43:17;25.90;;;12.80;;
59872;SDS011;50750;51.636;4.948;2022-12-10T08:45:43;26.50;;;12.80;;
59872;SDS011;50750;51.636;4.948;2022-12-10T08:48:09;25.90;;;13.30;;
59872;SDS011;50750;51.636;4.948;2022-12-10T08:50:36;26.70;;;13.30;;
59872;SDS011;50750;51.636;4.948;2022-12-10T08:53:02;24.70;;;12.30;;
59872;SDS011;50750;51.636;4.948;2022-12-10T08:55:28;24.90;;;12.80;;
59872;SDS011;50750;51.636;4.948;2022-12-10T08:57:55;27.70;;;13.10;;
59872;SDS011;50750;51.636;4.948;2022-12-10T09:00:22;27.20;;;12.70;;
59872;SDS011;50750;51.636;4.948;2022-12-10T09:02:49;24.30;;;12.70;;
59872;SDS011;50750;51.636;4.948;2022-12-10T09:05:15;25.00;;;12.70;;
59872;SDS011;50750;51.636;4.948;2022-12-10T09:07:41;25.00;;;13.20;;
59872;SDS011;50750;51.636;4.948;2022-12-10T09:10:08;24.00;;;12.60;;
59872;SDS011;50750;51.636;4.948;2022-12-10T09:12:36;24.80;;;12.30;;
59872;SDS011;50750;51.636;4.948;2022-12-10T09:15:03;25.20;;;12.90;;
59872;SDS011;50750;51.636;4.948;2022-12-10T09:17:31;25.80;;;12.50;;
59872;SDS011;50750;51.636;4.948;2022-12-10T09:19:57;22.10;;;12.00;;
59872;SDS011;50750;51.636;4.948;2022-12-10T09:22:22;21.20;;;12.00;;
59872;SDS011;50750;51.636;4.948;2022-12-10T09:24:48;23.30;;;12.40;;
59872;SDS011;50750;51.636;4.948;2022-12-10T09:27:14;22.80;;;12.00;;
59872;SDS011;50750;51.636;4.948;2022-12-10T09:29:40;21.80;;;11.70;;
59872;SDS011;50750;51.636;4.948;2022-12-10T09:32:06;25.10;;;12.60;;
59872;SDS011;50750;51.636;4.948;2022-12-10T09:34:32;25.40;;;12.60;;
59872;SDS011;50750;51.636;4.948;2022-12-10T09:36:58;24.10;;;11.50;;
59872;SDS011;50750;51.636;4.948;2022-12-10T09:39:23;25.20;;;11.90;;
59872;SDS011;50750;51.636;4.948;2022-12-10T09:47:16;24.00;;;12.00;;
59872;SDS011;50750;51.636;4.948;2022-12-10T09:49:52;21.70;;;11.80;;
59872;SDS011;50750;51.636;4.948;2022-12-10T09:52:21;22.20;;;11.40;;
59872;SDS011;50750;51.636;4.948;2022-12-10T09:54:59;22.50;;;11.30;;
59872;SDS011;50750;51.636;4.948;2022-12-10T09:57:31;21.50;;;10.80;;
59872;SDS011;50750;51.636;4.948;2022-12-10T10:00:06;23.80;;;11.40;;
59872;SDS011;50750;51.636;4.948;2022-12-10T10:02:42;21.60;;;11.40;;
59872;SDS011;50750;51.636;4.948;2022-12-10T10:07:35;23.90;;;11.50;;
59872;SDS011;50750;51.636;4.948;2022-12-10T10:10:06;24.70;;;12.10;;
59872;SDS011;50750;51.636;4.948;2022-12-10T10:12:43;22.70;;;11.40;;
59872;SDS011;50750;51.636;4.948;2022-12-10T10:17:47;24.60;;;12.00;;
59872;SDS011;50750;51.636;4.948;2022-12-10T10:20:15;22.70;;;11.80;;
59872;SDS011;50750;51.636;4.948;2022-12-10T10:22:41;22.60;;;11.50;;
59872;SDS011;50750;51.636;4.948;2022-12-10T10:25:12;28.20;;;13.70;;
59872;SDS011;50750;51.636;4.948;2022-12-10T10:27:40;23.70;;;11.70;;
59872;SDS011;50750;51.636;4.948;2022-12-10T10:30:07;24.30;;;12.10;;
59872;SDS011;50750;51.636;4.948;2022-12-10T10:35:19;25.00;;;12.20;;
59872;SDS011;50750;51.636;4.948;2022-12-10T10:38:00;22.10;;;11.50;;
59872;SDS011;50750;51.636;4.948;2022-12-10T10:40:32;25.40;;;12.10;;
59872;SDS011;50750;51.636;4.948;2022-12-10T10:43:05;22.00;;;12.50;;
59872;SDS011;50750;51.636;4.948;2022-12-10T10:48:10;25.40;;;13.10;;
59872;SDS011;50750;51.636;4.948;2022-12-10T10:56:05;25.00;;;12.10;;
59872;SDS011;50750;51.636;4.948;2022-12-10T10:58:35;23.40;;;12.10;;
59872;SDS011;50750;51.636;4.948;2022-12-10T11:06:00;23.40;;;11.80;;
59872;SDS011;50750;51.636;4.948;2022-12-10T11:08:29;23.30;;;11.90;;
59872;SDS011;50750;51.636;4.948;2022-12-10T11:13:31;19.80;;;10.50;;
59872;SDS011;50750;51.636;4.948;2022-12-10T11:16:36;27.70;;;11.80;;
59872;SDS011;50750;51.636;4.948;2022-12-10T11:18:59;26.80;;;12.20;;
59872;SDS011;50750;51.636;4.948;2022-12-10T11:21:31;22.30;;;12.50;;
59872;SDS011;50750;51.636;4.948;2022-12-10T11:23:59;25.70;;;12.00;;
59872;SDS011;50750;51.636;4.948;2022-12-10T11:32:24;26.30;;;11.80;;
59872;SDS011;50750;51.636;4.948;2022-12-10T11:43:22;25.70;;;11.60;;
59872;SDS011;50750;51.636;4.948;2022-12-10T11:56:44;23.20;;;11.40;;
59872;SDS011;50750;51.636;4.948;2022-12-10T11:59:31;24.20;;;11.70;;
59872;SDS011;50750;51.636;4.948;2022-12-10T12:13:47;25.30;;;12.60;;
59872;SDS011;50750;51.636;4.948;2022-12-10T12:16:23;24.10;;;12.00;;
59872;SDS011;50750;51.636;4.948;2022-12-10T12:18:57;25.50;;;13.00;;
59872;SDS011;50750;51.636;4.948;2022-12-10T12:21:27;23.90;;;12.50;;
59872;SDS011;50750;51.636;4.948;2022-12-10T12:23:58;20.80;;;11.90;;
59872;SDS011;50750;51.636;4.948;2022-12-10T12:26:39;22.40;;;11.80;;
59872;SDS011;50750;51.636;4.948;2022-12-10T12:40:39;27.40;;;13.20;;
59872;SDS011;50750;51.636;4.948;2022-12-10T12:43:12;26.60;;;12.80;;
59872;SDS011;50750;51.636;4.948;2022-12-10T12:45:45;27.40;;;13.00;;
59872;SDS011;50750;51.636;4.948;2022-12-10T12:48:16;28.50;;;13.90;;
59872;SDS011;50750;51.636;4.948;2022-12-10T12:50:50;26.00;;;13.20;;
59872;SDS011;50750;51.636;4.948;2022-12-10T12:53:21;27.90;;;13.60;;
59872;SDS011;50750;51.636;4.948;2022-12-10T12:56:00;25.30;;;13.20;;
59872;SDS011;50750;51.636;4.948;2022-12-10T13:04:00;22.60;;;12.80;;
59872;SDS011;50750;51.636;4.948;2022-12-10T13:06:29;25.00;;;13.60;;
59872;SDS011;50750;51.636;4.948;2022-12-10T13:08:58;24.40;;;12.50;;
59872;SDS011;50750;51.636;4.948;2022-12-10T13:11:31;26.60;;;13.70;;
59872;SDS011;50750;51.636;4.948;2022-12-10T13:24:21;24.60;;;12.30;;
59872;SDS011;50750;51.636;4.948;2022-12-10T13:32:20;25.00;;;13.10;;
59872;SDS011;50750;51.636;4.948;2022-12-10T13:37:35;25.00;;;12.90;;
59872;SDS011;50750;51.636;4.948;2022-12-10T13:47:47;24.50;;;11.30;;
59872;SDS011;50750;51.636;4.948;2022-12-10T13:50:34;24.40;;;12.60;;
59872;SDS011;50750;51.636;4.948;2022-12-10T14:01:35;20.40;;;11.20;;
59872;SDS011;50750;51.636;4.948;2022-12-10T14:04:54;22.40;;;11.50;;
59872;SDS011;50750;51.636;4.948;2022-12-10T14:07:13;23.30;;;11.50;;
59872;SDS011;50750;51.636;4.948;2022-12-10T14:09:51;21.20;;;11.70;;
59872;SDS011;50750;51.636;4.948;2022-12-10T14:12:24;21.70;;;11.00;;
59872;SDS011;50750;51.636;4.948;2022-12-10T14:14:54;26.30;;;12.30;;
59872;SDS011;50750;51.636;4.948;2022-12-10T14:17:25;20.10;;;10.90;;
59872;SDS011;50750;51.636;4.948;2022-12-10T14:20:00;23.70;;;12.10;;
59872;SDS011;50750;51.636;4.948;2022-12-10T14:22:31;21.90;;;11.00;;
59872;SDS011;50750;51.636;4.948;2022-12-10T14:25:01;22.30;;;11.30;;
59872;SDS011;50750;51.636;4.948;2022-12-10T14:27:32;22.40;;;11.60;;
59872;SDS011;50750;51.636;4.948;2022-12-10T14:30:00;25.10;;;11.90;;
59872;SDS011;50750;51.636;4.948;2022-12-10T14:32:33;25.20;;;12.00;;
59872;SDS011;50750;51.636;4.948;2022-12-10T14:35:04;22.80;;;12.00;;
59872;SDS011;50750;51.636;4.948;2022-12-10T14:37:35;23.10;;;11.60;;
59872;SDS011;50750;51.636;4.948;2022-12-10T14:40:05;24.40;;;12.00;;
59872;SDS011;50750;51.636;4.948;2022-12-10T14:42:33;24.90;;;11.60;;
59872;SDS011;50750;51.636;4.948;2022-12-10T14:45:00;21.20;;;11.40;;
59872;SDS011;50750;51.636;4.948;2022-12-10T14:47:36;23.80;;;11.60;;
59872;SDS011;50750;51.636;4.948;2022-12-10T14:50:05;22.80;;;11.80;;
59872;SDS011;50750;51.636;4.948;2022-12-10T14:52:41;24.90;;;12.40;;
59872;SDS011;50750;51.636;4.948;2022-12-10T14:55:17;27.20;;;13.70;;
59872;SDS011;50750;51.636;4.948;2022-12-10T14:57:55;26.70;;;12.50;;
59872;SDS011;50750;51.636;4.948;2022-12-10T15:00:24;23.30;;;12.20;;
59872;SDS011;50750;51.636;4.948;2022-12-10T15:02:54;24.20;;;12.40;;
59872;SDS011;50750;51.636;4.948;2022-12-10T15:05:25;26.00;;;12.30;;
59872;SDS011;50750;51.636;4.948;2022-12-10T15:07:59;23.90;;;11.90;;
59872;SDS011;50750;51.636;4.948;2022-12-10T15:10:32;25.40;;;12.40;;
59872;SDS011;50750;51.636;4.948;2022-12-10T15:13:01;27.10;;;13.00;;
59872;SDS011;50750;51.636;4.948;2022-12-10T15:15:32;25.30;;;11.70;;
59872;SDS011;50750;51.636;4.948;2022-12-10T15:20:36;24.70;;;12.80;;
59872;SDS011;50750;51.636;4.948;2022-12-10T15:23:20;25.10;;;12.40;;
59872;SDS011;50750;51.636;4.948;2022-12-10T15:28:27;25.10;;;11.70;;
59872;SDS011;50750;51.636;4.948;2022-12-10T15:30:56;27.10;;;13.10;;
59872;SDS011;50750;51.636;4.948;2022-12-10T15:33:37;24.90;;;12.70;;
59872;SDS011;50750;51.636;4.948;2022-12-10T15:36:11;41.10;;;17.40;;
59872;SDS011;50750;51.636;4.948;2022-12-10T15:44:06;33.30;;;14.30;;
59872;SDS011;50750;51.636;4.948;2022-12-10T15:49:42;30.60;;;13.40;;
59872;SDS011;50750;51.636;4.948;2022-12-10T15:52:12;31.00;;;14.00;;
59872;SDS011;50750;51.636;4.948;2022-12-10T15:54:39;28.70;;;13.70;;
59872;SDS011;50750;51.636;4.948;2022-12-10T15:57:18;32.70;;;15.20;;
59872;SDS011;50750;51.636;4.948;2022-12-10T15:59:50;34.90;;;14.60;;
59872;SDS011;50750;51.636;4.948;2022-12-10T16:02:37;31.60;;;14.60;;
59872;SDS011;50750;51.636;4.948;2022-12-10T16:07:36;28.70;;;13.50;;
59872;SDS011;50750;51.636;4.948;2022-12-10T16:10:02;28.60;;;13.20;;
59872;SDS011;50750;51.636;4.948;2022-12-10T16:12:29;27.30;;;13.60;;
59872;SDS011;50750;51.636;4.948;2022-12-10T16:14:56;31.20;;;14.30;;
59872;SDS011;50750;51.636;4.948;2022-12-10T16:17:25;28.00;;;14.00;;
59872;SDS011;50750;51.636;4.948;2022-12-10T16:19:59;29.30;;;14.00;;
59872;SDS011;50750;51.636;4.948;2022-12-10T16:22:26;33.20;;;14.40;;
59872;SDS011;50750;51.636;4.948;2022-12-10T16:24:52;32.30;;;14.60;;
59872;SDS011;50750;51.636;4.948;2022-12-10T16:27:17;28.80;;;13.60;;
59872;SDS011;50750;51.636;4.948;2022-12-10T16:29:43;32.30;;;14.80;;
59872;SDS011;50750;51.636;4.948;2022-12-10T16:32:10;31.70;;;13.80;;
59872;SDS011;50750;51.636;4.948;2022-12-10T16:34:37;30.60;;;14.00;;
59872;SDS011;50750;51.636;4.948;2022-12-10T16:37:04;27.70;;;13.20;;
59872;SDS011;50750;51.636;4.948;2022-12-10T16:39:32;31.60;;;13.90;;
59872;SDS011;50750;51.636;4.948;2022-12-10T16:41:58;33.30;;;14.60;;
59872;SDS011;50750;51.636;4.948;2022-12-10T16:44:24;30.30;;;14.00;;
59872;SDS011;50750;51.636;4.948;2022-12-10T16:46:49;28.00;;;13.50;;
59872;SDS011;50750;51.636;4.948;2022-12-10T16:49:16;31.60;;;13.90;;
59872;SDS011;50750;51.636;4.948;2022-12-10T16:51:42;34.60;;;14.50;;
59872;SDS011;50750;51.636;4.948;2022-12-10T16:54:09;29.10;;;13.20;;
59872;SDS011;50750;51.636;4.948;2022-12-10T16:56:37;29.50;;;14.10;;
59872;SDS011;50750;51.636;4.948;2022-12-10T16:59:03;29.90;;;14.40;;
59872;SDS011;50750;51.636;4.948;2022-12-10T17:01:30;26.20;;;12.60;;
59872;SDS011;50750;51.636;4.948;2022-12-10T17:03:56;30.00;;;13.10;;
59872;SDS011;50750;51.636;4.948;2022-12-10T17:06:24;29.00;;;13.80;;
59872;SDS011;50750;51.636;4.948;2022-12-10T17:08:51;40.60;;;15.40;;
59872;SDS011;50750;51.636;4.948;2022-12-10T17:11:18;34.20;;;15.30;;
59872;SDS011;50750;51.636;4.948;2022-12-10T17:14:24;32.60;;;14.80;;